sensor_id;sensor_type;location;lat;lon;timestamp;temperature;humidity
40454;DHT22;26160;51.858;4.398;2023-05-10T00:01:19;12.40;99.90
40454;DHT22;26160;51.858;4.398;2023-05-10T00:03:45;12.40;99.90
40454;DHT22;26160;51.858;4.398;2023-05-10T00:06:12;12.40;99.90
40454;DHT22;26160;51.858;4.398;2023-05-10T00:08:38;12.50;99.90
40454;DHT22;26160;51.858;4.398;2023-05-10T00:11:04;12.50;99.90
40454;DHT22;26160;51.858;4.398;2023-05-10T00:13:31;12.40;99.90
40454;DHT22;26160;51.858;4.398;2023-05-10T00:15:57;12.40;99.90
40454;DHT22;26160;51.858;4.398;2023-05-10T00:18:24;12.40;99.90
40454;DHT22;26160;51.858;4.398;2023-05-10T00:20:50;12.40;99.90
40454;DHT22;26160;51.858;4.398;2023-05-10T00:23:16;12.40;99.90
40454;DHT22;26160;51.858;4.398;2023-05-10T00:25:42;12.40;99.90
40454;DHT22;26160;51.858;4.398;2023-05-10T00:28:10;12.40;99.90
40454;DHT22;26160;51.858;4.398;2023-05-10T00:30:36;12.40;99.90
40454;DHT22;26160;51.858;4.398;2023-05-10T00:33:03;12.40;99.90
40454;DHT22;26160;51.858;4.398;2023-05-10T00:35:29;12.40;99.90
40454;DHT22;26160;51.858;4.398;2023-05-10T00:37:55;12.50;99.90
40454;DHT22;26160;51.858;4.398;2023-05-10T00:40:21;12.40;99.90
40454;DHT22;26160;51.858;4.398;2023-05-10T00:42:47;12.40;99.90
40454;DHT22;26160;51.858;4.398;2023-05-10T00:45:13;12.50;99.90
40454;DHT22;26160;51.858;4.398;2023-05-10T00:47:40;12.50;99.90
40454;DHT22;26160;51.858;4.398;2023-05-10T00:50:12;12.50;99.90
40454;DHT22;26160;51.858;4.398;2023-05-10T00:52:38;12.50;99.90
40454;DHT22;26160;51.858;4.398;2023-05-10T00:55:06;12.50;99.90
40454;DHT22;26160;51.858;4.398;2023-05-10T00:57:32;12.50;99.90
40454;DHT22;26160;51.858;4.398;2023-05-10T00:59:59;12.50;99.90
40454;DHT22;26160;51.858;4.398;2023-05-10T01:11:07;12.60;99.90
40454;DHT22;26160;51.858;4.398;2023-05-10T01:17:13;12.60;99.90
40454;DHT22;26160;51.858;4.398;2023-05-10T01:53:49;12.70;99.90
40454;DHT22;26160;51.858;4.398;2023-05-10T02:06:44;12.70;99.90
40454;DHT22;26160;51.858;4.398;2023-05-10T02:21:31;12.70;99.90
40454;DHT22;26160;51.858;4.398;2023-05-10T02:24:20;12.80;99.90
40454;DHT22;26160;51.858;4.398;2023-05-10T02:27:07;12.80;99.90
40454;DHT22;26160;51.858;4.398;2023-05-10T02:29:46;12.80;99.90
40454;DHT22;26160;51.858;4.398;2023-05-10T02:35:43;12.80;99.90
40454;DHT22;26160;51.858;4.398;2023-05-10T02:39:30;12.80;99.90
40454;DHT22;26160;51.858;4.398;2023-05-10T02:53:56;12.80;99.90
40454;DHT22;26160;51.858;4.398;2023-05-10T03:00:21;12.70;99.90
40454;DHT22;26160;51.858;4.398;2023-05-10T03:03:33;12.70;99.90
40454;DHT22;26160;51.858;4.398;2023-05-10T03:16:57;12.70;99.90
40454;DHT22;26160;51.858;4.398;2023-05-10T04:07:15;12.60;99.90
40454;DHT22;26160;51.858;4.398;2023-05-10T04:10:15;12.60;99.90
40454;DHT22;26160;51.858;4.398;2023-05-10T04:22:58;12.50;99.90
40454;DHT22;26160;51.858;4.398;2023-05-10T04:28:32;12.40;99.90
40454;DHT22;26160;51.858;4.398;2023-05-10T04:34:44;12.40;99.90
40454;DHT22;26160;51.858;4.398;2023-05-10T04:38:00;12.30;99.90
40454;DHT22;26160;51.858;4.398;2023-05-10T05:24:27;12.20;99.90
40454;DHT22;26160;51.858;4.398;2023-05-10T05:30:36;12.30;99.90
40454;DHT22;26160;51.858;4.398;2023-05-10T05:33:03;12.30;99.90
40454;DHT22;26160;51.858;4.398;2023-05-10T05:35:59;12.30;99.90
40454;DHT22;26160;51.858;4.398;2023-05-10T05:41:03;12.40;99.90
40454;DHT22;26160;51.858;4.398;2023-05-10T05:43:29;12.40;99.90
40454;DHT22;26160;51.858;4.398;2023-05-10T05:45:55;12.40;99.90
40454;DHT22;26160;51.858;4.398;2023-05-10T05:48:24;12.30;99.90
40454;DHT22;26160;51.858;4.398;2023-05-10T05:50:53;12.40;99.90
40454;DHT22;26160;51.858;4.398;2023-05-10T05:53:19;12.50;99.90
40454;DHT22;26160;51.858;4.398;2023-05-10T05:55:56;12.50;99.90
40454;DHT22;26160;51.858;4.398;2023-05-10T05:58:24;12.50;99.90
40454;DHT22;26160;51.858;4.398;2023-05-10T06:00:51;12.60;99.90
40454;DHT22;26160;51.858;4.398;2023-05-10T06:03:18;12.60;99.90
40454;DHT22;26160;51.858;4.398;2023-05-10T06:05:44;12.70;99.90
40454;DHT22;26160;51.858;4.398;2023-05-10T06:08:10;12.60;99.90
40454;DHT22;26160;51.858;4.398;2023-05-10T06:10:37;12.60;99.90
40454;DHT22;26160;51.858;4.398;2023-05-10T06:13:03;12.60;99.90
40454;DHT22;26160;51.858;4.398;2023-05-10T06:15:29;12.60;99.90
40454;DHT22;26160;51.858;4.398;2023-05-10T06:17:55;12.60;99.90
40454;DHT22;26160;51.858;4.398;2023-05-10T06:20:21;12.60;99.90
40454;DHT22;26160;51.858;4.398;2023-05-10T06:22:48;12.60;99.90
40454;DHT22;26160;51.858;4.398;2023-05-10T06:25:16;12.60;99.90
40454;DHT22;26160;51.858;4.398;2023-05-10T06:27:44;12.60;99.90
40454;DHT22;26160;51.858;4.398;2023-05-10T06:30:10;12.60;99.90
40454;DHT22;26160;51.858;4.398;2023-05-10T06:32:39;12.60;99.90
40454;DHT22;26160;51.858;4.398;2023-05-10T06:35:05;12.70;99.90
40454;DHT22;26160;51.858;4.398;2023-05-10T06:37:31;12.70;99.90
40454;DHT22;26160;51.858;4.398;2023-05-10T06:39:58;12.70;99.90
40454;DHT22;26160;51.858;4.398;2023-05-10T06:42:24;12.70;99.90
40454;DHT22;26160;51.858;4.398;2023-05-10T06:44:51;12.70;99.90
40454;DHT22;26160;51.858;4.398;2023-05-10T06:47:17;12.70;99.90
40454;DHT22;26160;51.858;4.398;2023-05-10T06:49:43;12.80;99.90
40454;DHT22;26160;51.858;4.398;2023-05-10T06:52:10;12.80;99.90
40454;DHT22;26160;51.858;4.398;2023-05-10T06:54:36;12.90;99.90
40454;DHT22;26160;51.858;4.398;2023-05-10T06:57:02;13.00;99.90
40454;DHT22;26160;51.858;4.398;2023-05-10T06:59:29;13.10;99.90
40454;DHT22;26160;51.858;4.398;2023-05-10T07:01:58;13.30;99.90
40454;DHT22;26160;51.858;4.398;2023-05-10T07:04:27;13.40;99.90
40454;DHT22;26160;51.858;4.398;2023-05-10T07:06:53;13.50;99.90
40454;DHT22;26160;51.858;4.398;2023-05-10T07:09:19;13.50;99.90
40454;DHT22;26160;51.858;4.398;2023-05-10T07:11:46;13.50;99.90
40454;DHT22;26160;51.858;4.398;2023-05-10T07:14:12;13.50;99.90
40454;DHT22;26160;51.858;4.398;2023-05-10T07:16:38;13.40;99.90
40454;DHT22;26160;51.858;4.398;2023-05-10T07:19:07;13.50;99.90
40454;DHT22;26160;51.858;4.398;2023-05-10T07:21:33;13.50;99.90
40454;DHT22;26160;51.858;4.398;2023-05-10T07:24:00;13.50;99.90
40454;DHT22;26160;51.858;4.398;2023-05-10T07:26:27;13.50;99.90
40454;DHT22;26160;51.858;4.398;2023-05-10T07:28:53;13.70;99.90
40454;DHT22;26160;51.858;4.398;2023-05-10T07:31:19;13.80;99.90
40454;DHT22;26160;51.858;4.398;2023-05-10T07:33:48;13.80;99.90
40454;DHT22;26160;51.858;4.398;2023-05-10T07:36:14;13.70;99.90
40454;DHT22;26160;51.858;4.398;2023-05-10T07:38:41;13.70;99.90
40454;DHT22;26160;51.858;4.398;2023-05-10T07:41:11;13.70;99.90
40454;DHT22;26160;51.858;4.398;2023-05-10T07:43:38;13.60;99.90
40454;DHT22;26160;51.858;4.398;2023-05-10T07:46:04;13.60;99.90
40454;DHT22;26160;51.858;4.398;2023-05-10T07:48:31;13.60;99.90
40454;DHT22;26160;51.858;4.398;2023-05-10T07:50:58;13.60;99.90
40454;DHT22;26160;51.858;4.398;2023-05-10T07:53:26;13.70;99.90
40454;DHT22;26160;51.858;4.398;2023-05-10T07:56:26;13.70;99.90
40454;DHT22;26160;51.858;4.398;2023-05-10T07:58:56;13.90;99.90
40454;DHT22;26160;51.858;4.398;2023-05-10T08:01:22;13.80;99.90
40454;DHT22;26160;51.858;4.398;2023-05-10T08:03:49;13.90;99.90
40454;DHT22;26160;51.858;4.398;2023-05-10T08:06:20;13.90;99.90
40454;DHT22;26160;51.858;4.398;2023-05-10T08:08:47;13.80;99.90
40454;DHT22;26160;51.858;4.398;2023-05-10T08:11:17;13.90;99.90
40454;DHT22;26160;51.858;4.398;2023-05-10T08:13:44;14.00;99.90
40454;DHT22;26160;51.858;4.398;2023-05-10T08:16:10;13.90;99.90
40454;DHT22;26160;51.858;4.398;2023-05-10T08:18:37;13.90;99.90
40454;DHT22;26160;51.858;4.398;2023-05-10T08:21:05;13.80;99.90
40454;DHT22;26160;51.858;4.398;2023-05-10T08:23:31;13.80;99.90
40454;DHT22;26160;51.858;4.398;2023-05-10T08:25:58;13.90;99.90
40454;DHT22;26160;51.858;4.398;2023-05-10T08:28:24;13.90;99.90
40454;DHT22;26160;51.858;4.398;2023-05-10T08:30:51;14.00;99.90
40454;DHT22;26160;51.858;4.398;2023-05-10T08:33:18;14.00;99.90
40454;DHT22;26160;51.858;4.398;2023-05-10T08:35:45;14.10;99.90
40454;DHT22;26160;51.858;4.398;2023-05-10T08:38:11;14.10;99.90
40454;DHT22;26160;51.858;4.398;2023-05-10T08:40:42;14.10;99.90
40454;DHT22;26160;51.858;4.398;2023-05-10T08:43:12;14.20;99.90
40454;DHT22;26160;51.858;4.398;2023-05-10T08:45:40;14.20;99.90
40454;DHT22;26160;51.858;4.398;2023-05-10T08:48:10;14.20;99.90
40454;DHT22;26160;51.858;4.398;2023-05-10T08:50:41;14.20;99.90
40454;DHT22;26160;51.858;4.398;2023-05-10T08:53:12;14.10;99.90
40454;DHT22;26160;51.858;4.398;2023-05-10T08:55:40;14.10;99.90
40454;DHT22;26160;51.858;4.398;2023-05-10T08:58:09;14.10;99.90
40454;DHT22;26160;51.858;4.398;2023-05-10T09:00:35;14.20;99.90
40454;DHT22;26160;51.858;4.398;2023-05-10T09:03:04;14.20;99.90
40454;DHT22;26160;51.858;4.398;2023-05-10T09:05:31;14.30;99.90
40454;DHT22;26160;51.858;4.398;2023-05-10T09:07:57;14.40;99.90
40454;DHT22;26160;51.858;4.398;2023-05-10T09:10:27;14.30;99.90
40454;DHT22;26160;51.858;4.398;2023-05-10T09:12:56;14.50;99.90
40454;DHT22;26160;51.858;4.398;2023-05-10T09:15:25;14.50;99.90
40454;DHT22;26160;51.858;4.398;2023-05-10T09:17:51;14.40;99.90
40454;DHT22;26160;51.858;4.398;2023-05-10T09:20:18;14.40;99.90
40454;DHT22;26160;51.858;4.398;2023-05-10T09:22:44;14.40;99.90
40454;DHT22;26160;51.858;4.398;2023-05-10T09:25:16;14.40;99.90
40454;DHT22;26160;51.858;4.398;2023-05-10T09:27:46;14.30;99.90
40454;DHT22;26160;51.858;4.398;2023-05-10T09:30:33;14.30;99.90
40454;DHT22;26160;51.858;4.398;2023-05-10T09:32:59;14.30;99.90
40454;DHT22;26160;51.858;4.398;2023-05-10T09:35:28;14.20;99.90
40454;DHT22;26160;51.858;4.398;2023-05-10T09:37:57;14.20;99.90
40454;DHT22;26160;51.858;4.398;2023-05-10T09:40:25;14.10;99.90
40454;DHT22;26160;51.858;4.398;2023-05-10T09:45:23;14.10;99.90
40454;DHT22;26160;51.858;4.398;2023-05-10T09:47:50;14.00;99.90
40454;DHT22;26160;51.858;4.398;2023-05-10T09:50:16;14.00;99.90
40454;DHT22;26160;51.858;4.398;2023-05-10T09:52:54;13.90;99.90
40454;DHT22;26160;51.858;4.398;2023-05-10T09:55:22;13.80;99.90
40454;DHT22;26160;51.858;4.398;2023-05-10T09:57:49;13.90;99.90
40454;DHT22;26160;51.858;4.398;2023-05-10T10:00:23;13.80;99.90
40454;DHT22;26160;51.858;4.398;2023-05-10T10:02:57;13.80;99.90
40454;DHT22;26160;51.858;4.398;2023-05-10T10:05:34;13.80;99.90
40454;DHT22;26160;51.858;4.398;2023-05-10T10:08:05;13.80;99.90
40454;DHT22;26160;51.858;4.398;2023-05-10T10:10:33;13.70;99.90
40454;DHT22;26160;51.858;4.398;2023-05-10T10:13:00;13.70;99.90
40454;DHT22;26160;51.858;4.398;2023-05-10T10:15:26;13.70;99.90
40454;DHT22;26160;51.858;4.398;2023-05-10T10:17:53;13.70;99.90
40454;DHT22;26160;51.858;4.398;2023-05-10T10:20:21;13.70;99.90
40454;DHT22;26160;51.858;4.398;2023-05-10T10:22:48;13.70;99.90
40454;DHT22;26160;51.858;4.398;2023-05-10T10:25:16;13.70;99.90
40454;DHT22;26160;51.858;4.398;2023-05-10T10:27:54;13.80;99.90
40454;DHT22;26160;51.858;4.398;2023-05-10T10:30:43;13.80;99.90
40454;DHT22;26160;51.858;4.398;2023-05-10T10:35:50;14.10;99.90
40454;DHT22;26160;51.858;4.398;2023-05-10T10:38:16;14.10;99.90
40454;DHT22;26160;51.858;4.398;2023-05-10T10:40:43;14.10;99.90
40454;DHT22;26160;51.858;4.398;2023-05-10T10:43:26;14.30;99.90
40454;DHT22;26160;51.858;4.398;2023-05-10T10:48:40;14.20;99.90
40454;DHT22;26160;51.858;4.398;2023-05-10T10:51:09;14.20;99.90
40454;DHT22;26160;51.858;4.398;2023-05-10T10:53:37;14.40;99.90
40454;DHT22;26160;51.858;4.398;2023-05-10T10:56:12;14.60;99.90
40454;DHT22;26160;51.858;4.398;2023-05-10T10:58:39;14.70;99.90
40454;DHT22;26160;51.858;4.398;2023-05-10T11:01:11;14.80;99.90
40454;DHT22;26160;51.858;4.398;2023-05-10T11:03:38;14.90;99.90
40454;DHT22;26160;51.858;4.398;2023-05-10T11:06:04;15.00;99.90
40454;DHT22;26160;51.858;4.398;2023-05-10T11:08:39;15.00;99.90
40454;DHT22;26160;51.858;4.398;2023-05-10T11:11:14;14.90;99.90
40454;DHT22;26160;51.858;4.398;2023-05-10T11:13:44;14.80;99.90
40454;DHT22;26160;51.858;4.398;2023-05-10T11:16:56;14.90;99.90
40454;DHT22;26160;51.858;4.398;2023-05-10T11:19:06;14.90;99.90
40454;DHT22;26160;51.858;4.398;2023-05-10T11:21:34;14.80;99.90
40454;DHT22;26160;51.858;4.398;2023-05-10T11:24:14;14.80;99.90
40454;DHT22;26160;51.858;4.398;2023-05-10T11:26:41;14.60;99.90
40454;DHT22;26160;51.858;4.398;2023-05-10T11:29:07;14.70;99.90
40454;DHT22;26160;51.858;4.398;2023-05-10T11:31:34;14.80;99.90
40454;DHT22;26160;51.858;4.398;2023-05-10T11:34:01;14.80;99.90
40454;DHT22;26160;51.858;4.398;2023-05-10T11:36:35;14.80;99.90
40454;DHT22;26160;51.858;4.398;2023-05-10T11:39:02;14.80;99.90
40454;DHT22;26160;51.858;4.398;2023-05-10T11:41:30;15.00;99.90
40454;DHT22;26160;51.858;4.398;2023-05-10T11:43:57;15.00;99.90
40454;DHT22;26160;51.858;4.398;2023-05-10T11:46:26;15.00;99.90
40454;DHT22;26160;51.858;4.398;2023-05-10T11:49:00;15.00;99.90
40454;DHT22;26160;51.858;4.398;2023-05-10T11:51:27;15.20;99.90
40454;DHT22;26160;51.858;4.398;2023-05-10T11:53:55;15.30;99.90
40454;DHT22;26160;51.858;4.398;2023-05-10T11:56:22;15.50;99.90
40454;DHT22;26160;51.858;4.398;2023-05-10T11:58:57;15.70;99.90
40454;DHT22;26160;51.858;4.398;2023-05-10T12:01:26;15.80;99.90
40454;DHT22;26160;51.858;4.398;2023-05-10T12:03:53;15.90;99.90
40454;DHT22;26160;51.858;4.398;2023-05-10T12:06:21;16.10;99.90
40454;DHT22;26160;51.858;4.398;2023-05-10T12:08:48;16.30;99.90
40454;DHT22;26160;51.858;4.398;2023-05-10T12:11:18;16.40;99.90
40454;DHT22;26160;51.858;4.398;2023-05-10T12:13:45;16.60;99.90
40454;DHT22;26160;51.858;4.398;2023-05-10T12:16:20;16.40;99.90
40454;DHT22;26160;51.858;4.398;2023-05-10T12:18:51;16.20;99.90
40454;DHT22;26160;51.858;4.398;2023-05-10T12:21:18;16.30;99.90
40454;DHT22;26160;51.858;4.398;2023-05-10T12:23:46;16.20;99.90
40454;DHT22;26160;51.858;4.398;2023-05-10T12:26:14;16.00;99.90
40454;DHT22;26160;51.858;4.398;2023-05-10T12:28:41;16.10;99.90
40454;DHT22;26160;51.858;4.398;2023-05-10T12:31:08;16.10;99.90
40454;DHT22;26160;51.858;4.398;2023-05-10T12:33:43;16.40;99.90
40454;DHT22;26160;51.858;4.398;2023-05-10T12:36:11;16.50;99.90
40454;DHT22;26160;51.858;4.398;2023-05-10T12:38:39;16.80;99.90
40454;DHT22;26160;51.858;4.398;2023-05-10T12:41:11;17.10;99.90
40454;DHT22;26160;51.858;4.398;2023-05-10T12:43:38;17.30;99.90
40454;DHT22;26160;51.858;4.398;2023-05-10T12:46:12;17.10;99.90
40454;DHT22;26160;51.858;4.398;2023-05-10T12:48:40;17.00;99.90
40454;DHT22;26160;51.858;4.398;2023-05-10T12:51:08;16.90;99.90
40454;DHT22;26160;51.858;4.398;2023-05-10T12:53:38;17.10;99.90
40454;DHT22;26160;51.858;4.398;2023-05-10T12:56:06;16.80;99.90
40454;DHT22;26160;51.858;4.398;2023-05-10T12:58:35;16.80;99.90
40454;DHT22;26160;51.858;4.398;2023-05-10T13:01:02;16.70;99.90
40454;DHT22;26160;51.858;4.398;2023-05-10T13:03:28;16.60;99.90
40454;DHT22;26160;51.858;4.398;2023-05-10T13:05:54;16.70;99.90
40454;DHT22;26160;51.858;4.398;2023-05-10T13:08:20;16.80;99.90
40454;DHT22;26160;51.858;4.398;2023-05-10T13:10:46;16.60;99.90
40454;DHT22;26160;51.858;4.398;2023-05-10T13:13:12;16.60;99.90
40454;DHT22;26160;51.858;4.398;2023-05-10T13:15:39;16.60;99.90
40454;DHT22;26160;51.858;4.398;2023-05-10T13:18:05;16.50;99.90
40454;DHT22;26160;51.858;4.398;2023-05-10T13:20:31;16.50;99.90
40454;DHT22;26160;51.858;4.398;2023-05-10T13:22:57;16.20;99.90
40454;DHT22;26160;51.858;4.398;2023-05-10T13:25:23;16.20;99.90
40454;DHT22;26160;51.858;4.398;2023-05-10T13:27:50;16.00;99.90
40454;DHT22;26160;51.858;4.398;2023-05-10T13:30:16;15.90;99.90
40454;DHT22;26160;51.858;4.398;2023-05-10T13:32:42;15.90;99.90
40454;DHT22;26160;51.858;4.398;2023-05-10T13:35:08;15.90;99.90
40454;DHT22;26160;51.858;4.398;2023-05-10T13:37:34;15.90;99.90
40454;DHT22;26160;51.858;4.398;2023-05-10T13:40:03;16.00;99.90
40454;DHT22;26160;51.858;4.398;2023-05-10T13:42:30;16.20;99.90
40454;DHT22;26160;51.858;4.398;2023-05-10T13:45:00;16.50;99.90
40454;DHT22;26160;51.858;4.398;2023-05-10T13:47:27;16.50;99.90
40454;DHT22;26160;51.858;4.398;2023-05-10T13:49:56;16.60;99.90
40454;DHT22;26160;51.858;4.398;2023-05-10T13:52:23;16.70;99.90
40454;DHT22;26160;51.858;4.398;2023-05-10T13:54:49;16.90;99.90
40454;DHT22;26160;51.858;4.398;2023-05-10T13:57:18;16.90;99.90
40454;DHT22;26160;51.858;4.398;2023-05-10T13:59:44;16.90;99.90
40454;DHT22;26160;51.858;4.398;2023-05-10T14:02:10;17.00;99.90
40454;DHT22;26160;51.858;4.398;2023-05-10T14:04:38;17.00;99.90
40454;DHT22;26160;51.858;4.398;2023-05-10T14:07:05;17.10;99.90
40454;DHT22;26160;51.858;4.398;2023-05-10T14:09:31;17.10;99.90
40454;DHT22;26160;51.858;4.398;2023-05-10T14:11:57;17.00;99.90
40454;DHT22;26160;51.858;4.398;2023-05-10T14:14:23;17.10;99.90
40454;DHT22;26160;51.858;4.398;2023-05-10T14:16:49;17.10;99.90
40454;DHT22;26160;51.858;4.398;2023-05-10T14:19:15;17.10;99.90
40454;DHT22;26160;51.858;4.398;2023-05-10T14:21:41;16.90;99.90
40454;DHT22;26160;51.858;4.398;2023-05-10T14:24:08;16.80;99.90
40454;DHT22;26160;51.858;4.398;2023-05-10T14:26:35;16.70;99.90
40454;DHT22;26160;51.858;4.398;2023-05-10T14:29:01;16.70;99.90
40454;DHT22;26160;51.858;4.398;2023-05-10T14:31:28;16.60;99.90
40454;DHT22;26160;51.858;4.398;2023-05-10T14:33:56;16.40;99.90
40454;DHT22;26160;51.858;4.398;2023-05-10T14:36:23;16.40;99.90
40454;DHT22;26160;51.858;4.398;2023-05-10T14:38:49;16.40;99.90
40454;DHT22;26160;51.858;4.398;2023-05-10T14:41:16;16.30;99.90
40454;DHT22;26160;51.858;4.398;2023-05-10T14:43:43;16.20;99.90
40454;DHT22;26160;51.858;4.398;2023-05-10T14:46:09;16.20;99.90
40454;DHT22;26160;51.858;4.398;2023-05-10T14:48:35;16.20;99.90
40454;DHT22;26160;51.858;4.398;2023-05-10T14:51:02;16.30;99.90
40454;DHT22;26160;51.858;4.398;2023-05-10T14:53:29;16.50;99.90
40454;DHT22;26160;51.858;4.398;2023-05-10T14:55:55;16.30;99.90
40454;DHT22;26160;51.858;4.398;2023-05-10T14:58:22;16.30;99.90
40454;DHT22;26160;51.858;4.398;2023-05-10T15:00:48;16.30;99.90
40454;DHT22;26160;51.858;4.398;2023-05-10T15:03:14;16.30;99.90
40454;DHT22;26160;51.858;4.398;2023-05-10T15:05:41;16.20;99.90
40454;DHT22;26160;51.858;4.398;2023-05-10T15:08:07;16.20;99.90
40454;DHT22;26160;51.858;4.398;2023-05-10T15:10:33;16.10;99.90
40454;DHT22;26160;51.858;4.398;2023-05-10T15:12:59;16.20;99.90
40454;DHT22;26160;51.858;4.398;2023-05-10T15:15:26;16.20;99.90
40454;DHT22;26160;51.858;4.398;2023-05-10T15:17:52;16.20;99.90
40454;DHT22;26160;51.858;4.398;2023-05-10T15:20:18;16.20;99.90
40454;DHT22;26160;51.858;4.398;2023-05-10T15:22:47;16.10;99.90
40454;DHT22;26160;51.858;4.398;2023-05-10T15:25:13;16.00;99.90
40454;DHT22;26160;51.858;4.398;2023-05-10T15:27:41;15.90;99.90
40454;DHT22;26160;51.858;4.398;2023-05-10T15:30:10;15.80;99.90
40454;DHT22;26160;51.858;4.398;2023-05-10T15:32:36;15.60;99.90
40454;DHT22;26160;51.858;4.398;2023-05-10T15:35:03;15.50;99.90
40454;DHT22;26160;51.858;4.398;2023-05-10T15:37:29;15.50;99.90
40454;DHT22;26160;51.858;4.398;2023-05-10T15:39:55;15.50;99.90
40454;DHT22;26160;51.858;4.398;2023-05-10T15:42:30;15.40;99.90
40454;DHT22;26160;51.858;4.398;2023-05-10T15:44:56;15.40;99.90
40454;DHT22;26160;51.858;4.398;2023-05-10T15:47:22;15.40;99.90
40454;DHT22;26160;51.858;4.398;2023-05-10T15:49:49;15.30;99.90
40454;DHT22;26160;51.858;4.398;2023-05-10T15:52:15;15.20;99.90
40454;DHT22;26160;51.858;4.398;2023-05-10T15:54:41;15.20;99.90
40454;DHT22;26160;51.858;4.398;2023-05-10T15:57:07;15.20;99.90
40454;DHT22;26160;51.858;4.398;2023-05-10T15:59:34;15.20;99.90
40454;DHT22;26160;51.858;4.398;2023-05-10T16:02:00;15.10;99.90
40454;DHT22;26160;51.858;4.398;2023-05-10T16:04:29;15.10;99.90
40454;DHT22;26160;51.858;4.398;2023-05-10T16:06:55;15.10;99.90
40454;DHT22;26160;51.858;4.398;2023-05-10T16:09:21;15.10;99.90
40454;DHT22;26160;51.858;4.398;2023-05-10T16:11:47;15.10;99.90
40454;DHT22;26160;51.858;4.398;2023-05-10T16:14:13;15.10;99.90
40454;DHT22;26160;51.858;4.398;2023-05-10T16:16:41;15.10;99.90
40454;DHT22;26160;51.858;4.398;2023-05-10T16:19:08;15.00;99.90
40454;DHT22;26160;51.858;4.398;2023-05-10T16:21:34;15.00;99.90
40454;DHT22;26160;51.858;4.398;2023-05-10T16:24:01;15.00;99.90
40454;DHT22;26160;51.858;4.398;2023-05-10T16:26:27;15.00;99.90
40454;DHT22;26160;51.858;4.398;2023-05-10T16:28:53;15.00;99.90
40454;DHT22;26160;51.858;4.398;2023-05-10T16:31:19;15.00;99.90
40454;DHT22;26160;51.858;4.398;2023-05-10T16:33:47;15.00;99.90
40454;DHT22;26160;51.858;4.398;2023-05-10T16:36:13;15.00;99.90
40454;DHT22;26160;51.858;4.398;2023-05-10T16:38:39;14.90;99.90
40454;DHT22;26160;51.858;4.398;2023-05-10T16:41:06;14.90;99.90
40454;DHT22;26160;51.858;4.398;2023-05-10T16:43:32;14.90;99.90
40454;DHT22;26160;51.858;4.398;2023-05-10T16:45:58;14.90;99.90
40454;DHT22;26160;51.858;4.398;2023-05-10T16:48:25;15.00;99.90
40454;DHT22;26160;51.858;4.398;2023-05-10T16:50:51;15.00;99.90
40454;DHT22;26160;51.858;4.398;2023-05-10T16:53:18;15.10;99.90
40454;DHT22;26160;51.858;4.398;2023-05-10T16:55:45;15.00;99.90
40454;DHT22;26160;51.858;4.398;2023-05-10T16:58:11;15.00;99.90
40454;DHT22;26160;51.858;4.398;2023-05-10T17:00:37;15.00;99.90
40454;DHT22;26160;51.858;4.398;2023-05-10T17:03:04;15.00;99.90
40454;DHT22;26160;51.858;4.398;2023-05-10T17:05:30;15.00;99.90
40454;DHT22;26160;51.858;4.398;2023-05-10T17:07:57;15.10;99.90
40454;DHT22;26160;51.858;4.398;2023-05-10T17:10:23;15.10;99.90
40454;DHT22;26160;51.858;4.398;2023-05-10T17:12:49;15.10;99.90
40454;DHT22;26160;51.858;4.398;2023-05-10T17:15:16;15.10;99.90
40454;DHT22;26160;51.858;4.398;2023-05-10T17:17:43;15.10;99.90
40454;DHT22;26160;51.858;4.398;2023-05-10T17:20:10;15.00;99.90
40454;DHT22;26160;51.858;4.398;2023-05-10T17:22:36;15.00;99.90
40454;DHT22;26160;51.858;4.398;2023-05-10T17:25:02;15.00;99.90
40454;DHT22;26160;51.858;4.398;2023-05-10T17:27:29;14.90;99.90
40454;DHT22;26160;51.858;4.398;2023-05-10T17:29:55;15.00;99.90
40454;DHT22;26160;51.858;4.398;2023-05-10T17:32:22;14.90;99.90
40454;DHT22;26160;51.858;4.398;2023-05-10T17:34:48;14.90;99.90
40454;DHT22;26160;51.858;4.398;2023-05-10T17:37:15;14.90;99.90
40454;DHT22;26160;51.858;4.398;2023-05-10T17:39:41;14.90;99.90
40454;DHT22;26160;51.858;4.398;2023-05-10T17:42:07;14.90;99.90
40454;DHT22;26160;51.858;4.398;2023-05-10T17:44:33;14.90;99.90
40454;DHT22;26160;51.858;4.398;2023-05-10T17:46:59;14.90;99.90
40454;DHT22;26160;51.858;4.398;2023-05-10T17:49:26;15.00;99.90
40454;DHT22;26160;51.858;4.398;2023-05-10T17:51:53;15.10;99.90
40454;DHT22;26160;51.858;4.398;2023-05-10T17:54:19;15.00;99.90
40454;DHT22;26160;51.858;4.398;2023-05-10T17:56:45;15.00;99.90
40454;DHT22;26160;51.858;4.398;2023-05-10T17:59:12;15.10;99.90
40454;DHT22;26160;51.858;4.398;2023-05-10T18:01:38;15.10;99.90
40454;DHT22;26160;51.858;4.398;2023-05-10T18:04:04;15.10;99.90
40454;DHT22;26160;51.858;4.398;2023-05-10T18:06:37;15.10;99.90
40454;DHT22;26160;51.858;4.398;2023-05-10T18:09:04;15.00;99.90
40454;DHT22;26160;51.858;4.398;2023-05-10T18:11:33;15.00;99.90
40454;DHT22;26160;51.858;4.398;2023-05-10T18:14:00;15.00;99.90
40454;DHT22;26160;51.858;4.398;2023-05-10T18:16:26;14.90;99.90
40454;DHT22;26160;51.858;4.398;2023-05-10T18:18:52;14.80;99.90
40454;DHT22;26160;51.858;4.398;2023-05-10T18:21:18;14.80;99.90
40454;DHT22;26160;51.858;4.398;2023-05-10T18:23:44;14.80;99.90
40454;DHT22;26160;51.858;4.398;2023-05-10T18:26:13;14.80;99.90
40454;DHT22;26160;51.858;4.398;2023-05-10T18:28:39;14.70;99.90
40454;DHT22;26160;51.858;4.398;2023-05-10T18:31:06;14.70;99.90
40454;DHT22;26160;51.858;4.398;2023-05-10T18:33:32;14.70;99.90
40454;DHT22;26160;51.858;4.398;2023-05-10T18:36:02;14.70;99.90
40454;DHT22;26160;51.858;4.398;2023-05-10T18:38:29;14.70;99.90
40454;DHT22;26160;51.858;4.398;2023-05-10T18:40:55;14.60;99.90
40454;DHT22;26160;51.858;4.398;2023-05-10T18:43:22;14.60;99.90
40454;DHT22;26160;51.858;4.398;2023-05-10T18:45:48;14.60;99.90
40454;DHT22;26160;51.858;4.398;2023-05-10T18:48:15;14.50;99.90
40454;DHT22;26160;51.858;4.398;2023-05-10T18:50:42;14.50;99.90
40454;DHT22;26160;51.858;4.398;2023-05-10T18:53:08;14.50;99.90
40454;DHT22;26160;51.858;4.398;2023-05-10T18:55:34;14.40;99.90
40454;DHT22;26160;51.858;4.398;2023-05-10T18:58:00;14.30;99.90
40454;DHT22;26160;51.858;4.398;2023-05-10T19:00:26;14.30;99.90
40454;DHT22;26160;51.858;4.398;2023-05-10T19:02:52;14.30;99.90
40454;DHT22;26160;51.858;4.398;2023-05-10T19:05:18;14.20;99.90
40454;DHT22;26160;51.858;4.398;2023-05-10T19:07:45;14.20;99.90
40454;DHT22;26160;51.858;4.398;2023-05-10T19:10:12;14.20;99.90
40454;DHT22;26160;51.858;4.398;2023-05-10T19:12:38;14.20;99.90
40454;DHT22;26160;51.858;4.398;2023-05-10T19:15:07;14.20;99.90
40454;DHT22;26160;51.858;4.398;2023-05-10T19:17:33;14.20;99.90
40454;DHT22;26160;51.858;4.398;2023-05-10T19:20:01;14.10;99.90